createdAt,value
2023-02-28T00:05:27.876Z,23.6
2023-02-28T00:15:29.395Z,26.3
2023-02-28T00:25:29.649Z,25.6
2023-02-28T00:35:29.585Z,23.6
2023-02-28T00:45:30.980Z,25.5
2023-02-28T00:55:30.931Z,23.6
2023-02-28T01:05:31.462Z,24
2023-02-28T01:15:31.467Z,23.5
2023-02-28T01:25:31.660Z,23.4
2023-02-28T01:35:31.559Z,23.1
2023-02-28T01:45:31.719Z,23.6
2023-02-28T01:55:31.457Z,23.7
2023-02-28T02:05:31.714Z,23.6
2023-02-28T02:15:32.152Z,23.3
2023-02-28T02:25:33.029Z,26.3
2023-02-28T02:35:32.271Z,23.4
2023-02-28T02:45:33.981Z,23.2
2023-02-28T02:55:33.585Z,23.8
2023-02-28T03:05:07.888Z,23.6
2023-02-28T03:15:08.298Z,23.2
2023-02-28T03:25:08.088Z,23.6
2023-02-28T03:35:08.856Z,25.8
2023-02-28T03:45:08.892Z,23.7
2023-02-28T03:55:08.991Z,26.1
2023-02-28T04:05:09.909Z,25.8
2023-02-28T04:15:12.884Z,25.8
2023-02-28T04:25:14.547Z,23.4
2023-02-28T04:35:15.501Z,23.4
2023-02-28T04:45:16.694Z,23.6
2023-02-28T04:55:18.072Z,23.5
2023-02-28T05:05:19.065Z,25.7
2023-02-28T05:15:18.736Z,23.8
2023-02-28T05:25:19.751Z,23.4
2023-02-28T05:35:20.793Z,25.8
2023-02-28T05:45:20.555Z,23.3
2023-02-28T05:55:20.195Z,22.9
2023-02-28T06:05:20.652Z,22.9
2023-02-28T06:15:21.249Z,23.3
2023-02-28T06:25:21.223Z,23.5
2023-02-28T06:35:21.889Z,23.4
2023-02-28T06:45:22.330Z,23.3
2023-02-28T06:55:23.339Z,26
2023-02-28T07:05:23.316Z,23.3
2023-02-28T07:15:22.854Z,23.2
2023-02-28T07:25:23.923Z,26.1
2023-02-28T07:35:24.098Z,23
2023-02-28T07:45:24.087Z,23.1
2023-02-28T07:55:24.509Z,23.4
2023-02-28T08:05:23.990Z,23.6
2023-02-28T08:15:24.620Z,23.1
2023-02-28T08:25:24.515Z,23.1
2023-02-28T08:35:24.557Z,22.8
2023-02-28T08:45:24.614Z,23.8
2023-02-28T08:55:24.824Z,23.4
2023-02-28T09:05:08.548Z,23.6
2023-02-28T09:15:08.244Z,23.3
2023-02-28T09:25:08.829Z,23.4
2023-02-28T09:35:09.604Z,23.8
2023-02-28T09:45:11.963Z,24.8
2023-02-28T09:55:12.827Z,24.1
2023-02-28T10:05:13.993Z,23.5
2023-02-28T10:15:15.676Z,23.6
2023-02-28T10:25:17.468Z,23.4
2023-02-28T10:35:19.456Z,26.8
2023-02-28T10:45:25.562Z,22.6
2023-02-28T10:55:33.540Z,31.1
2023-02-28T11:05:43.307Z,35.9
2023-02-28T11:15:51.573Z,29.9
2023-02-28T11:26:03.388Z,28.7
2023-02-28T11:36:14.216Z,30
2023-02-28T11:46:20.134Z,30
2023-02-28T11:56:29.302Z,32.4
2023-02-28T12:06:37.735Z,30.3
2023-02-28T12:16:47.328Z,29.6
2023-02-28T12:26:56.323Z,29.9
2023-02-28T12:37:05.382Z,29.6
2023-02-28T12:47:14.037Z,25.2
2023-02-28T12:57:23.013Z,29.9
2023-02-28T13:07:30.684Z,29.1
2023-02-28T13:17:41.746Z,31.8
2023-02-28T13:27:49.497Z,32.5
2023-02-28T13:37:56.161Z,26.9
2023-02-28T13:48:05.776Z,27.2
2023-02-28T13:58:14.555Z,27.8
2023-02-28T14:08:19.079Z,24.9
2023-02-28T14:18:20.876Z,23.6
2023-02-28T14:28:22.760Z,27.2
2023-02-28T14:38:24.377Z,26.6
2023-02-28T14:48:26.183Z,23.3
2023-02-28T14:58:26.778Z,23.3
2023-02-28T15:05:08.353Z,26.1
2023-02-28T15:15:11.605Z,25.9
2023-02-28T15:25:11.619Z,23.4
2023-02-28T15:35:12.861Z,23
2023-02-28T15:45:12.123Z,22.9
2023-02-28T15:55:12.847Z,23.1
2023-02-28T16:05:13.074Z,23.3
2023-02-28T16:15:14.441Z,23.1
2023-02-28T16:25:16.855Z,23.1
2023-02-28T16:35:18.466Z,25.6
2023-02-28T16:45:20.423Z,25.6
2023-02-28T16:55:22.035Z,23.2
2023-02-28T17:05:22.525Z,23.1
2023-02-28T17:15:22.657Z,23.7
2023-02-28T17:25:23.811Z,22.9
2023-02-28T17:35:24.410Z,23.1
2023-02-28T17:45:25.479Z,22.9
2023-02-28T17:55:26.394Z,22.9
2023-02-28T18:05:26.320Z,23.3
2023-02-28T18:15:26.863Z,23.1
2023-02-28T18:25:27.471Z,22.6
2023-02-28T18:35:27.841Z,22.9
2023-02-28T18:45:28.024Z,23
2023-02-28T18:55:28.215Z,23.1
2023-02-28T19:05:28.150Z,23.1
2023-02-28T19:15:28.075Z,23
2023-02-28T19:25:29.106Z,22.7
2023-02-28T19:35:29.749Z,25
2023-02-28T19:45:29.356Z,22.8
2023-02-28T19:55:30.178Z,23
2023-02-28T20:05:30.558Z,23.5
2023-02-28T20:15:31.046Z,22.7
2023-02-28T20:25:31.553Z,22.9
2023-02-28T20:35:31.937Z,22.9
2023-02-28T20:45:32.590Z,22.8
2023-02-28T20:55:34.180Z,25.3
2023-02-28T21:05:08.538Z,23
2023-02-28T21:15:09.513Z,23
2023-02-28T21:25:09.469Z,22.9
2023-02-28T21:35:10.361Z,22.9
2023-02-28T21:45:11.143Z,22.9
2023-02-28T21:55:11.179Z,23.3
2023-02-28T22:05:13.075Z,25.2
2023-02-28T22:15:14.928Z,23.1
2023-02-28T22:25:18.041Z,25.2
2023-02-28T22:35:19.687Z,22.8
2023-02-28T22:45:22.439Z,25.4
2023-02-28T22:55:24.856Z,25.3
2023-02-28T23:05:25.197Z,24.7
2023-02-28T23:15:25.083Z,23.1
2023-02-28T23:25:26.514Z,25.4
2023-02-28T23:35:26.836Z,22.7
2023-02-28T23:45:27.269Z,22.6
2023-02-28T23:55:27.755Z,23.1
